Latest Weather Observations for Edinburgh

IDS60901

Issued at 8:31 am CST Friday 3 July 2015 (issued every 10 minutes, with the page automatically refreshed every 10 minutes)

About weather observations | Map of Adelaide area stations | Latest observations for Adelaide area | Other Formats
Station Details ID: 023083 Name: EDINBURGH RAAF Lat: -34.71 Lon: 138.62 Height: 16.54 m
Data from the previous 72 hours. | See also: Recent months at Edinburgh
Date/Time
CST
Tmp

°C
App
Tmp
°C
Dew
Point
°C
Rel
Hum
%
Delta-T

°C
Wind Press
QNH
hPa
Press
MSL
hPa
Rain
since
9 am
mm
Dir
 
Spd
km/h
Gust
km/h
Spd
kts
Gust
kts
03/08:30am 6.6 4.3 4.9 89 0.7 ENE 6 9 3 5 1029.6 1029.6 0.0
03/08:00am 5.2 3.9 3.9 91 0.5 CALM 0 0 0 0 1030.0 1030.0 0.0
03/07:30am 4.3 2.8 3.0 91 0.5 CALM 0 0 0 0 1029.4 1029.4 0.0
03/07:00am 3.7 2.1 2.2 90 0.6 CALM 0 0 0 0 1029.1 1029.1 0.0
03/06:30am 3.8 2.2 2.2 89 0.6 CALM 0 0 0 0 1028.8 1028.8 0.0
03/06:00am 4.4 2.9 2.9 90 0.6 CALM 0 0 0 0 1028.7 1028.7 0.0
03/05:30am 4.7 3.2 3.0 89 0.7 CALM 0 0 0 0 1028.6 1028.6 0.0
03/05:00am 3.6 1.9 2.1 90 0.6 CALM 0 0 0 0 1029.1 1029.1 0.0
03/04:30am 3.6 1.9 2.0 89 0.6 CALM 0 0 0 0 1029.1 1029.1 0.0
03/04:00am 3.8 1.4 2.0 88 0.7 SW 4 6 2 3 1029.2 1029.2 0.0
03/03:30am 4.2 1.5 2.6 89 0.6 SSW 6 7 3 4 1029.5 1029.5 0.0
03/03:00am 4.1 1.4 2.5 89 0.6 SSW 6 7 3 4 1029.6 1029.6 0.0
03/02:30am 3.7 2.0 2.1 89 0.6 CALM 0 6 0 3 1029.7 1029.7 0.0
03/02:00am 4.1 1.1 2.3 88 0.7 N 7 9 4 5 1029.5 1029.5 0.0
03/01:30am 3.7 0.3 2.1 89 0.6 NNE 9 11 5 6 1029.8 1029.8 0.0
03/01:00am 2.6 -0.9 1.0 89 0.6 N 9 11 5 6 1029.9 1029.9 0.0
03/12:30am 3.3 1.5 1.5 88 0.7 CALM 0 6 0 3 1030.1 1030.1 0.0
03/12:00am 4.5 2.6 2.7 88 0.7 NNE 2 6 1 3 1030.2 1030.2 0.0
 
Date/Time
CST
Tmp

°C
App
Tmp
°C
Dew
Point
°C
Rel
Hum
%
Delta-T

°C
Wind Press
QNH
hPa
Press
MSL
hPa
Rain
since
9 am
mm
Dir
 
Spd
km/h
Gust
km/h
Spd
kts
Gust
kts
02/11:30pm 4.5 2.6 2.7 88 0.7 N 2 6 1 3 1030.4 1030.4 0.0
02/11:00pm 4.7 2.0 2.6 86 0.9 NW 6 7 3 4 1030.5 1030.5 0.0
02/10:30pm 5.6 3.4 3.4 86 0.9 NNE 4 7 2 4 1030.5 1030.5 0.0
02/10:00pm 5.1 3.2 2.6 84 1.0 NNW 2 7 1 4 1030.6 1030.6 0.0
02/09:30pm 5.2 3.6 2.2 81 1.2 CALM 0 0 0 0 1030.7 1030.7 0.0
02/09:00pm 8.6 6.1 3.8 72 2.1 SSE 6 7 3 4 1030.6 1030.6 0.0
02/08:30pm 9.3 6.9 4.3 71 2.2 SE 6 9 3 5 1030.4 1030.4 0.0
02/08:00pm 10.1 7.6 4.5 68 2.5 E 7 11 4 6 1030.2 1030.2 0.0
02/07:30pm 9.9 7.4 4.9 71 2.2 E 7 9 4 5 1030.1 1030.1 0.0
02/07:00pm 10.6 8.2 5.2 69 2.5 E 7 9 4 5 1029.8 1029.8 0.0
02/06:30pm 11.2 8.6 5.9 70 2.4 E 9 13 5 7 1029.5 1029.5 0.0
02/06:00pm 10.7 8.5 6.3 74 2.0 ENE 7 9 4 5 1029.3 1029.3 0.0
02/05:30pm 9.7 7.0 5.7 76 1.8 WNW 9 11 5 6 1029.0 1029.0 0.0
02/05:00pm 11.8 8.5 6.3 69 2.6 WSW 13 17 7 9 1028.7 1028.7 0.0
02/04:30pm 13.5 10.5 7.9 69 2.7 W 13 15 7 8 1028.7 1028.7 0.0
02/04:00pm 13.8 10.1 7.8 67 3.0 W 17 22 9 12 1028.7 1028.7 0.0
02/03:30pm 14.5 10.7 7.5 63 3.4 WSW 17 20 9 11 1028.6 1028.6 0.0
02/03:00pm 15.1 11.1 6.7 57 4.1 SW 17 22 9 12 1028.7 1028.7 0.0
02/02:30pm 15.0 10.7 6.8 58 4.0 SW 19 24 10 13 1028.9 1028.9 0.0
02/02:00pm 14.6 9.7 6.9 60 3.8 SW 22 26 12 14 1028.8 1028.8 0.0
02/01:30pm 15.0 12.1 9.6 70 2.8 WSW 15 20 8 11 1029.0 1029.0 0.0
02/01:00pm 15.0 12.5 9.8 71 2.7 SW 13 19 7 10 1029.2 1029.2 0.0
02/12:30pm 14.7 13.0 9.9 73 2.5 SW 9 13 5 7 1029.3 1029.3 0.0
02/12:00pm 14.2 13.0 9.6 74 2.3 NNE 6 11 3 6 1029.5 1029.5 0.0
02/11:30am 13.1 11.8 9.9 81 1.6 NNE 7 11 4 6 1029.9 1029.9 0.0
02/11:00am 11.7 9.5 9.3 85 1.2 NNE 11 15 6 8 1030.1 1030.1 0.0
02/10:30am 11.0 9.1 8.9 87 1.0 N 9 11 5 6 1030.0 1030.0 0.0
02/10:13am 11.1 8.8 9.0 87 1.0 NNE 11 13 6 7 1029.8 1029.8 0.0
02/10:00am 10.9 8.9 8.8 87 1.0 NE 9 11 5 6 1029.7 1029.7 0.0
02/09:30am 10.3 7.4 8.2 87 1.0 NE 13 15 7 8 1029.4 1029.4 0.0
02/09:00am 9.8 8.0 8.1 89 0.8 NE 7 9 4 5 1029.2 1029.2 0.2
02/08:30am 9.6 7.0 7.7 88 0.9 NNE 11 13 6 7 1028.9 1028.9 0.2
02/08:00am 9.7 7.4 7.3 85 1.1 NNE 9 13 5 7 1028.7 1028.7 0.2
02/07:30am 9.7 6.9 7.0 83 1.3 N 11 15 6 8 1028.7 1028.7 0.0
02/07:00am 9.6 7.2 6.9 83 1.3 NE 9 15 5 8 1028.2 1028.2 0.0
02/06:30am 9.4 6.9 6.7 83 1.3 NNE 9 11 5 6 1028.1 1028.1 0.0
02/06:00am 9.1 7.1 6.4 83 1.2 NE 6 9 3 5 1027.9 1027.9 0.0
02/05:31am 8.9 6.7 6.3 84 1.2 NE 7 9 4 5 1027.9 1027.9 0.0
02/05:30am 8.9 6.7 6.3 84 1.2 NE 7 9 4 5 1027.9 1027.9 0.0
02/05:00am 8.7 6.1 6.2 84 1.1 NNE 9 13 5 7 1027.9 1027.9 0.0
02/04:30am 8.8 5.4 6.1 83 1.2 N 13 17 7 9 1027.7 1027.7 0.0
02/04:00am 9.0 5.7 6.3 83 1.2 NNE 13 17 7 9 1027.7 1027.7 0.0
02/03:30am 9.2 6.6 6.1 81 1.4 NNE 9 13 5 7 1027.8 1027.8 0.0
02/03:00am 8.8 6.2 6.1 83 1.2 NE 9 13 5 7 1027.8 1027.8 0.0
02/02:30am 8.2 5.2 5.8 85 1.1 NE 11 15 6 8 1027.8 1027.8 0.0
02/02:00am 7.6 4.4 4.9 83 1.2 NNE 11 13 6 7 1027.9 1027.9 0.0
02/01:30am 9.1 6.2 6.4 83 1.2 NE 11 13 6 7 1028.1 1028.1 0.0
02/01:00am 9.0 6.0 6.1 82 1.3 NE 11 15 6 8 1028.1 1028.1 0.0
02/12:30am 8.8 5.4 6.1 83 1.2 NNE 13 19 7 10 1028.2 1028.2 0.0
02/12:00am 8.3 4.9 5.9 85 1.1 NE 13 15 7 8 1028.5 1028.5 0.0
 
Date/Time
CST
Tmp

°C
App
Tmp
°C
Dew
Point
°C
Rel
Hum
%
Delta-T

°C
Wind Press
QNH
hPa
Press
MSL
hPa
Rain
since
9 am
mm
Dir
 
Spd
km/h
Gust
km/h
Spd
kts
Gust
kts
01/11:30pm 8.6 5.6 6.1 84 1.1 NE 11 13 6 7 1028.8 1028.8 0.0
01/11:00pm 8.8 5.8 6.1 83 1.2 NE 11 13 6 7 1029.0 1029.0 0.0
01/10:30pm 8.9 5.9 6.0 82 1.3 NNE 11 13 6 7 1029.0 1029.0 0.0
01/10:00pm 9.2 6.5 5.8 79 1.6 NE 9 11 5 6 1028.7 1028.7 0.0
01/09:30pm 9.1 6.4 5.8 80 1.5 NE 9 11 5 6 1028.6 1028.6 0.0
01/09:00pm 9.0 6.3 5.6 79 1.5 NE 9 13 5 7 1028.4 1028.4 0.0
01/08:30pm 8.5 5.8 5.4 81 1.4 NE 9 11 5 6 1028.6 1028.6 0.0
01/08:00pm 8.1 5.6 5.0 81 1.4 NNE 7 11 4 6 1028.2 1028.2 0.0
01/07:30pm 8.1 5.3 5.2 82 1.3 NNW 9 13 5 7 1028.4 1028.4 0.0
01/07:00pm 8.3 5.9 4.3 76 1.7 E 6 6 3 3 1028.2 1028.2 0.0
01/06:30pm 10.2 9.1 5.0 70 2.3 CALM 0 0 0 0 1027.8 1027.8 0.0
01/06:00pm 10.1 8.9 4.5 68 2.5 CALM 0 0 0 0 1027.7 1027.7 0.0
01/05:30pm 10.3 9.1 4.7 68 2.5 CALM 0 4 0 2 1027.5 1027.5 0.0
01/05:00pm 10.4 7.9 5.0 69 2.4 SW 7 7 4 4 1027.5 1027.5 0.0
01/04:30pm 11.0 8.1 4.7 65 2.8 WSW 9 11 5 6 1027.6 1027.6 0.0
01/04:00pm 11.9 8.6 4.6 61 3.3 SW 11 15 6 8 1027.6 1027.6 0.0
01/03:30pm 12.5 8.4 4.2 57 3.7 WSW 15 19 8 10 1027.5 1027.5 0.0
01/03:00pm 13.0 8.5 4.2 55 4.0 SW 17 20 9 11 1027.4 1027.4 0.0
01/02:30pm 14.1 10.8 2.7 46 5.0 NW 9 13 5 7 1027.2 1027.2 0.0
01/02:00pm 14.2 10.9 2.5 45 5.2 NNW 9 15 5 8 1027.6 1027.6 0.0
01/01:30pm 13.9 10.6 2.2 45 5.1 N 9 20 5 11 1028.3 1028.3 0.0
01/01:00pm 13.9 10.3 2.8 47 4.9 N 11 19 6 10 1028.7 1028.7 0.0
01/12:30pm 13.6 9.7 3.4 50 4.5 NNW 13 17 7 9 1029.1 1029.1 0.0
01/12:00pm 13.1 9.3 4.0 54 4.1 NNW 13 20 7 11 1030.1 1030.1 0.0
01/11:30am 12.4 9.1 4.4 58 3.6 N 11 15 6 8 1030.3 1030.3 0.0
01/11:00am 11.7 8.8 4.7 62 3.2 N 9 11 5 6 1030.7 1030.7 0.0
01/10:30am 10.6 7.5 5.6 71 2.3 N 11 15 6 8 1031.1 1031.1 0.0
01/10:00am 10.1 6.7 5.7 74 2.0 NNE 13 17 7 9 1031.1 1031.1 0.0
01/09:30am 8.7 6.3 5.4 80 1.5 NNE 7 9 4 5 1031.0 1031.0 0.0
01/09:00am 7.3 5.5 5.6 89 0.8 SE 4 7 2 4 1030.7 1030.7 0.0
01/08:30am 4.8 1.3 3.6 92 0.5 NE 11 15 6 8 1030.6 1030.6 0.0
01/08:00am 3.6 -0.5 2.4 92 0.5 NE 13 15 7 8 1030.7 1030.7 0.0
01/07:30am 3.0 -0.8 1.7 91 0.5 NE 11 13 6 7 1030.7 1030.7 0.0
01/07:00am 3.6 0.3 2.4 92 0.5 ENE 9 13 5 7 1030.5 1030.5 0.0
01/06:30am 3.5 0.2 2.3 92 0.5 NE 9 11 5 6 1030.4 1030.4 0.0
01/06:00am 3.8 0.9 2.8 93 0.4 ENE 7 11 4 6 1030.2 1030.2 0.0
01/05:30am 2.9 -0.9 1.9 93 0.4 NE 11 11 6 6 1030.2 1030.2 0.0
01/05:00am 2.7 -0.7 1.7 93 0.4 NE 9 11 5 6 1030.0 1030.0 0.0
01/04:30am 3.1 -0.3 1.9 92 0.5 NE 9 11 5 6 1029.7 1029.7 0.0
01/04:00am 2.8 -0.3 1.6 92 0.5 NNE 7 9 4 5 1029.8 1029.8 0.0
01/03:30am 2.7 -0.2 1.4 91 0.5 NE 6 7 3 4 1030.1 1030.1 0.0
01/03:12am 3.4 0.4 2.2 92 0.5 ENE 7 9 4 5 1030.0 1030.0 0.0
01/03:00am 2.5 -0.1 1.0 90 0.6 NE 4 9 2 5 1029.9 1029.9 0.0
01/02:53am 3.1 1.0 1.6 90 0.6 ENE 2 6 1 3 1030.0 1030.0 0.0
01/02:30am 3.0 0.1 1.5 90 0.6 E 6 6 3 3 1029.9 1029.9 0.0
01/02:00am 3.1 0.2 1.5 89 0.6 ENE 6 7 3 4 1030.0 1030.0 0.0
01/01:30am 5.8 3.2 4.3 90 0.6 E 7 9 4 5 1030.0 1030.0 0.0
01/01:00am 5.2 2.7 3.7 90 0.6 E 6 7 3 4 1030.2 1030.2 0.0
01/12:30am 5.8 3.8 4.3 90 0.6 E 4 7 2 4 1030.3 1030.3 0.0
01/12:00am 5.9 4.3 4.4 90 0.6 NNE 2 6 1 3 1030.3 1030.3 0.0
 
Date/Time
CST
Tmp

°C
App
Tmp
°C
Dew
Point
°C
Rel
Hum
%
Delta-T

°C
Wind Press
QNH
hPa
Press
MSL
hPa
Rain
since
9 am
mm
Dir
 
Spd
km/h
Gust
km/h
Spd
kts
Gust
kts
30/11:30pm 4.8 2.1 2.8 87 0.8 NNE 6 6 3 3 1030.4 1030.4 0.0
30/11:00pm 7.3 4.9 5.4 88 0.8 NE 7 11 4 6 1030.3 1030.3 0.0
30/10:30pm 7.3 4.9 4.3 81 1.3 NE 6 7 3 4 1030.6 1030.6 0.0
30/10:00pm 9.0 7.7 5.9 81 1.4 E 2 7 1 4 1030.7 1030.7 0.0
30/09:30pm 9.9 8.0 6.8 81 1.4 ENE 6 7 3 4 1031.0 1031.0 0.0
30/09:00pm 9.6 8.9 7.0 84 1.2 CALM 0 0 0 0 1031.2 1031.2 0.0
30/08:30pm 9.7 9.0 7.1 84 1.2 CALM 0 0 0 0 1031.1 1031.1 0.0
30/08:00pm 10.2 9.6 7.3 82 1.4 CALM 0 0 0 0 1030.7 1030.7 0.0
30/07:30pm 10.4 8.6 7.1 80 1.6 WSW 6 7 3 4 1030.9 1030.9 0.0
30/07:00pm 10.3 7.9 7.2 81 1.5 WSW 9 11 5 6 1030.7 1030.7 0.0
30/06:30pm 10.5 8.1 7.0 79 1.6 WSW 9 9 5 5 1030.3 1030.3 0.0
30/06:00pm 10.5 8.4 6.6 77 1.8 W 7 9 4 5 1030.0 1030.0 0.0
30/05:30pm 10.9 8.4 6.6 75 2.0 W 9 13 5 7 1029.9 1029.9 0.0
30/05:00pm 11.4 8.8 6.3 71 2.4 WSW 9 13 5 7 1029.6 1029.6 0.0
30/04:30pm 11.8 8.4 6.1 68 2.7 WSW 13 17 7 9 1029.4 1029.4 0.0
30/04:00pm 12.3 9.2 5.5 63 3.2 SW 11 15 6 8 1029.4 1029.4 0.0
30/03:30pm 12.7 9.5 4.9 59 3.6 SW 11 15 6 8 1029.2 1029.2 0.0
30/03:00pm 13.0 9.3 4.2 55 4.0 SW 13 19 7 10 1029.4 1029.4 0.0
30/02:30pm 12.8 8.7 2.1 48 4.6 SW 13 19 7 10 1029.5 1029.5 0.0
30/02:00pm 12.7 9.0 2.6 50 4.4 WSW 11 15 6 8 1029.4 1029.4 0.0
30/01:30pm 13.0 9.6 3.9 54 4.1 WSW 11 17 6 9 1029.7 1029.7 0.0
30/01:00pm 13.5 10.2 2.7 48 4.8 WSW 9 17 5 9 1029.8 1029.8 0.0
30/12:30pm 12.9 10.1 3.0 51 4.3 WSW 7 13 4 7 1030.4 1030.4 0.0
30/12:00pm 12.3 9.4 2.5 51 4.2 WSW 7 11 4 6 1030.9 1030.9 0.0
30/11:30am 12.2 10.4 3.2 54 3.9 ENE 2 7 1 4 1031.4 1031.4 0.0
30/11:00am 11.9 10.1 3.2 55 3.8 N 2 6 1 3 1031.7 1031.7 0.0
30/10:30am 10.6 7.8 3.2 60 3.2 WNW 7 11 4 6 1031.7 1031.7 0.0
30/10:00am 9.6 7.5 3.8 67 2.5 SW 4 9 2 5 1032.0 1032.0 0.0
30/09:30am 8.8 6.3 5.0 77 1.7 N 7 9 4 5 1031.4 1031.4 0.0
30/09:00am 8.2 6.9 4.2 76 1.7 CALM 0 0 0 0 1031.3 1031.3 0.0

Latest Capital City Observations: Canberra | Sydney | Melbourne | Brisbane | Adelaide | Perth | Hobart | Darwin

Other Formats:

Comma delimited format used in spreadsheet applications
http://www.bom.gov.au/fwo/IDS60901/IDS60901.95676.axf

JavaScript Object Notation format (JSON) in row-major order
http://www.bom.gov.au/fwo/IDS60901/IDS60901.95676.json